• Join FlightAware (Why Join?)
  • Login
  • US Flag 
03:06AM EST


 

Airport Tracker/Info


-or-


 

Live Flight TrackerFlight Track Log ✈ N130RC ✈ 31-Dec-2013 ✈ KHIO - KHIO

Flight Track Log - Related Links

Times and Time Zones

All times are in EST time to prevent confusion due to time zone crossing. See the N130RC flight status page for this flight to view local times or setup timezone preferences in your user account.

Time Position Orientation Groundspeed Altitude Reporting Facility
EST Latitude Longitude Course Direction KTS MPH feet Rate Location/Type
03:31PM 45.5267 -122.9428 North 92 106 1,000  Level Seattle Center
03:32PM 45.5000 -122.9503 191° South 97 112 2,000 984 Climbing Seattle Center
03:33PM 45.4700 -122.9625 196° South 101 116 3,000 750 Climbing Seattle Center
03:34PM 45.4453 -122.9667 187° South 118 136 3,400 179 Climbing Seattle Center
03:34PM 45.4344 -122.9581 151° Southeast 139 160 3,200 -197 Descending Seattle Center
03:35PM 45.4083 -122.9408 155° Southeast 146 168 3,200 -100 Level Seattle Center
03:35PM 45.3992 -122.9325 147° Southeast 159 183 3,100 -98 Descending Seattle Center
03:36PM 45.5406 -122.9502 North  Level Estimated
03:36PM 45.3775 -122.9036 137° Southeast 147 169 3,100  Level Seattle Center
03:36PM 45.3719 -122.8942 130° Southeast 145 167 3,100 100 Level Seattle Center
03:37PM 45.3453 -122.8792 158° South 149 171 3,200 98 Climbing Seattle Center
03:37PM 45.3358 -122.8872 211° Southwest 138 159 3,200  Level Seattle Center
03:38PM 45.3133 -122.9028 206° Southwest 131 151 3,200  Level Seattle Center
03:38PM 45.3042 -122.9122 216° Southwest 131 151 3,200  Level Seattle Center
03:39PM 45.2839 -122.9364 220° Southwest 128 147 3,200  Level Seattle Center
03:39PM 45.2792 -122.9497 243° Southwest 140 161 3,200 -98 Level Seattle Center
03:40PM 45.2700 -122.9781 245° Southwest 134 154 3,100 -333 Descending Seattle Center
03:40PM 45.2647 -122.9861 227° Southwest 158 182 2,900 -885 Descending Seattle Center
03:41PM 45.2542 -123.0183 245° Southwest 125 144 2,200 -885 Descending Seattle Center
03:41PM 45.2489 -123.0261 226° Southwest 120 138 2,000 -689 Descending Seattle Center
03:42PM 45.2347 -123.0561 236° Southwest 119 137 1,500 -627 Descending Seattle Center
03:42PM 45.2275 -123.0714 236° Southwest 114 131 1,300 -590 Descending Seattle Center
03:43PM 45.2172 -123.0933 236° Southwest 117 135 900 -590 Descending Seattle Center
03:43PM 45.2092 -123.1094 235° Southwest 112 129 700 -197 Descending Seattle Center
03:44PM 45.1967 -123.1386 239° Southwest 115 132 700  Level Seattle Center
03:44PM 45.1956 -123.1392 199° South 112 129 700 787 Level Seattle Center
03:45PM 45.2100 -123.1683 305° West 121 139 1,500 333 Climbing Seattle Center
03:45PM 45.1914 -123.1622 167° South 111 128 1,000 800 Descending Seattle Center
03:45PM 45.2158 -123.1650 355° North 110 127 1,700 1,552 Climbing Seattle Center
03:46PM 45.2356 -123.1347 47° Northeast 125 144 2,500 889 Climbing Seattle Center
03:46PM 45.2358 -123.1356 295° West 120 138 2,500 590 Level Seattle Center
03:47PM 45.2636 -123.1031 39° Northeast 128 147 3,100 655 Climbing Seattle Center
03:47PM 45.2622 -123.1036 196° South 127 146 3,100 295 Level Seattle Center
03:48PM 45.2906 -123.0642 44° Northeast 136 157 3,400 269 Climbing Seattle Center
03:48PM 45.2889 -123.0531 102° East 148 170 3,400 197 Level Seattle Center
03:49PM 45.2692 -123.0556 185° South 120 138 3,600 295 Climbing Seattle Center
03:49PM 45.2675 -123.0647 256° West 125 144 3,700 295 Climbing Seattle Center
03:50PM 45.2883 -123.0753 340° North 108 124 3,900 273 Climbing Seattle Center
03:50PM 45.2933 -123.0758 356° North 105 121 4,000 197 Climbing Seattle Center
03:51PM 45.3128 -123.0469 46° Northeast 121 139 4,100 98 Climbing Seattle Center
03:51PM 45.3139 -123.0372 81° East 125 144 4,100  Level Seattle Center
03:52PM 45.3342 -122.9967 55° Northeast 134 154 4,100  Level Seattle Center
03:52PM 45.3397 -122.9931 25° Northeast 140 161 4,100 98 Level Seattle Center
03:53PM 45.3592 -122.9556 54° Northeast 138 159 4,200 197 Climbing Seattle Center
03:53PM 45.3608 -122.9478 73° East 139 160 4,300  Climbing Seattle Center
03:54PM 45.3494 -122.8964 107° East 149 171 4,200 -100 Descending Seattle Center
03:54PM 45.3483 -122.8944 129° Southeast 150 173 4,200 -197 Level Seattle Center
03:55PM 45.3183 -122.8739 154° Southeast 147 169 4,000 -295 Descending Seattle Center
03:55PM 45.3131 -122.8811 224° Southwest 148 170 3,900 -295 Descending Seattle Center
03:56PM 45.2947 -122.9158 233° Southwest 139 160 3,700 -218 Descending Seattle Center
03:56PM 45.2947 -122.9192 270° West 140 161 3,700 -295 Level Seattle Center
03:57PM 45.2775 -122.9594 239° Southwest 128 147 3,400 -411 Descending Seattle Center
03:57PM 45.2719 -122.9681 227° Southwest 128 147 3,200 -900 Descending Seattle Center
03:58PM 45.2617 -123.0000 245° Southwest 116 133 2,500 -875 Descending Seattle Center
03:58PM 45.2611 -123.0000 180° South 119 137 2,500 -787 Level Seattle Center
03:59PM 45.2458 -123.0342 238° Southwest 108 124 1,700 -787 Descending Seattle Center
03:59PM 45.2439 -123.0342 180° South 104 120 1,700 -197 Level Seattle Center
04:00PM 45.2314 -123.0647 240° Southwest 99 114 1,500 -247 Descending Seattle Center
04:00PM 45.2275 -123.0714 230° Southwest 94 108 1,400 -492 Descending Seattle Center
04:01PM 45.2147 -123.0967 234° Southwest 98 113 1,000 -600 Descending Seattle Center
04:01PM 45.2106 -123.1058 237° Southwest 97 112 800 -400 Descending Seattle Center
04:02PM 45.1992 -123.1331 239° Southwest 103 119 600 -245 Descending Seattle Center
04:02PM 45.1992 -123.1347 270° West 104 120 600 1,180 Level Seattle Center
04:03PM 45.2114 -123.1536 313° West 111 128 1,800 1,180 Climbing Seattle Center
04:03PM 45.2117 -123.1544 295° West 113 130 1,800 984 Level Seattle Center
04:04PM 45.2378 -123.1283 35° Northeast 114 131 2,800 917 Climbing Seattle Center
04:04PM 45.2422 -123.1239 35° Northeast 117 135 2,900 787 Climbing Seattle Center
04:05PM 45.2608 -123.0989 43° Northeast 112 129 3,600 787 Climbing Seattle Center
04:05PM 45.2644 -123.0936 46° Northeast 114 131 3,700 600 Climbing Seattle Center
04:06PM 45.2828 -123.0650 48° Northeast 114 131 4,200 330 Climbing Seattle Center
04:07PM 45.3119 -123.0164 50° Northeast 154 177 4,300  Climbing Seattle Center
04:08PM 45.3467 -123.0203 355° North 144 166 4,200 -90 Descending Seattle Center
04:08PM 45.3511 -123.0283 308° West 141 162 4,200  Level Seattle Center
04:09PM 45.3792 -123.0483 333° Northwest 137 158 4,200  Level Seattle Center
04:09PM 45.3844 -123.0550 318° Northwest 144 166 4,200 -100 Level Seattle Center
04:10PM 45.4119 -123.0747 333° Northwest 136 157 4,100 -111 Descending Seattle Center
04:10PM 45.4153 -123.0794 315° West 135 155 4,100 -98 Level Seattle Center
04:11PM 45.4458 -123.1081 327° Northwest 137 158 4,000 -90 Descending Seattle Center
04:11PM 45.4497 -123.1119 325° Northwest 137 158 4,000  Level Seattle Center
04:12PM 45.4772 -123.1375 327° Northwest 136 157 4,000  Level Seattle Center
04:12PM 45.4817 -123.1422 323° Northwest 137 158 4,000  Level Seattle Center
04:13PM 45.5089 -123.1675 327° Northwest 136 157 4,000  Level Seattle Center
04:13PM 45.5111 -123.1706 316° Northwest 135 155 4,000  Level Seattle Center
04:14PM 45.5375 -123.1975 324° Northwest 128 147 4,000  Level Seattle Center
04:14PM 45.5403 -123.1989 341° North 130 150 4,000  Level Seattle Center
04:15PM 45.5664 -123.2231 327° Northwest 123 142 4,000  Level Seattle Center
04:15PM 45.5717 -123.2264 336° Northwest 119 137 4,000  Level Seattle Center
04:16PM 45.5939 -123.2475 326° Northwest 117 135 4,000 100 Level Seattle Center
04:16PM 45.5986 -123.2528 322° Northwest 119 137 4,100 100 Climbing Seattle Center
04:17PM 45.6272 -123.2439 12° North 133 153 4,100  Level Seattle Center
04:17PM 45.6333 -123.2422 11° North 137 158 4,100  Level Seattle Center
04:18PM 45.6642 -123.2200 27° Northeast 134 154 4,100  Level Seattle Center
04:18PM 45.6697 -123.2183 12° North 136 157 4,100 -98 Level Seattle Center
04:19PM 45.6983 -123.2003 24° Northeast 132 152 4,000  Descending Seattle Center
04:19PM 45.7042 -123.1956 29° Northeast 132 152 4,100  Climbing Seattle Center
04:20PM 45.7231 -123.1669 47° Northeast 135 155 4,000 -122 Descending Seattle Center
04:20PM 45.7242 -123.1658 35° Northeast 137 158 4,000 -197 Level Seattle Center
04:21PM 45.7006 -123.1194 126° Southeast 149 171 3,800 -247 Descending Seattle Center
04:21PM 45.6944 -123.1128 143° Southeast 149 171 3,700 -492 Descending Seattle Center
04:22PM 45.6675 -123.0867 146° Southeast 147 169 3,300 -606 Descending Seattle Center
04:23PM 45.6394 -123.0567 143° Southeast 131 151 2,600 -684 Descending Seattle Center
04:24PM 45.6339 -123.0475 131° Southeast 111 128 2,400 -700 Descending Seattle Center
04:24PM 45.6192 -123.0333 146° Southeast 107 123 1,900 -778 Descending Seattle Center
04:24PM 45.6128 -123.0283 151° Southeast 108 124 1,700 -689 Descending Seattle Center
04:25PM 45.5953 -123.0086 142° Southeast 106 122 1,200 -492 Descending Seattle Center
04:25PM 45.5886 -123.0042 155° Southeast 104 120 1,200 -295 Level Seattle Center
04:26PM 45.5739 -122.9839 136° Southeast 103 119 900 -358 Descending Seattle Center
04:27PM 45.5653 -122.9733 139° Southeast 98 113 800 -300 Descending Seattle Center
04:27PM 45.5494 -122.9592 148° Southeast 101 116 600 -200 Descending Seattle Center
04:28PM 45.5497 -122.9611 282° West 98 113 600  Level Seattle Center